Terminal Aerodrome Forecast
Issued by NWS Pueblo, CO

Home | Current Version | Previous Version | Text Only | Print | Product List | Glossary On
Versions: 1 2 3 4 5 6 7 8 9 10 11 12 13 14 15 16 17 18 19 20 21 22 23 24
000
FTUS45 KPUB 300224 AAA
TAFPUB
TAF AMD
KPUB 300224Z 3002/3024 01007KT P6SM SCT100 BKN200
     FM300300 15012G22KT P6SM SCT120 BKN200
     FM300600 29006KT P6SM SCT200
     FM301800 12012KT P6SM SCT100 SCT150
     FM302100 11014KT P6SM VCTS SCT080CB BKN120=

USA.gov is the U.S. government's official web portal to all federal, state and local government web resources and services.